Albertville, Wisconsin
Current Conditions -  °F | °C
As of 12:35 AM on Monday 24 Nov 2014 (Local Time) from KLUM Reporting Station
Drizzle Drizzle  
Wind Chill: 28°   Ceiling: 1000
Heat Index: 37°   Visibility: 3mi
Dew Point: 36°   Wind: 13mph
Humidity: 99%   Direction: 300°WNW
Pressure: 29.22"   Gusts: NA
Location:  45.0099°N, 91.7075°W
Report Text: KLUM 240635Z AUTO 30011KT 3SM DZ BKN010 OVC027 03/02 A2922 RMK AO2 P0003 T00250023
Loading
Personal Weather Stations






























Interactive Weather Map New forecast layout! Learn more

10-Day Weather Forecast

Advertisements
Track Severe Weather on mobile